This is the latest recevied weather packets stored in our database for station/object WX4HP-13. If no packets are shown the sender has not sent any weather packets the latest 1 day(s).
| Time | Temp. | Humidity | Pressure | Rain* | Wind** | Luminosity | Snow |
|---|---|---|---|---|---|---|---|
| 1777984197 | 15° C | 78% | 1014.4 hPa | 0 mm | 0 m/s | - | - |
| 1777983897 | 15° C | 77% | 1014.4 hPa | 0 mm | 0 m/s | - | - |
| 1777983597 | 15° C | 77% | 1014.4 hPa | 0 mm | 0 m/s | - | - |
| 1777983295 | 14.44° C | 78% | 1014.4 hPa | 0 mm | 0 m/s | - | - |
| 1777982997 | 12.78° C | 84% | 1014.6 hPa | 0 mm | 0 m/s | - | - |
| 1777982697 | 11.67° C | 87% | 1014.5 hPa | 0 mm | 0 m/s | - | - |
| 1777982395 | 11.11° C | 91% | 1014.6 hPa | 0 mm | 0 m/s | - | - |
| 1777982097 | 10° C | 93% | 1014.5 hPa | 0 mm | 0 m/s | - | - |
| 1777981495 | 9.44° C | 94% | 1014.2 hPa | 0 mm | 0.45 m/s, 119° | - | - |
| 1777981197 | 9.44° C | 94% | 1014.2 hPa | 0 mm | 0 m/s | - | - |
| 1777980899 | 9.44° C | 94% | 1014.1 hPa | 0 mm | 0 m/s | - | - |
| 1777980297 | 9.44° C | 95% | 1014.1 hPa | 0 mm | 0 m/s | - | - |
| 1777979997 | 9.44° C | 95% | 1013.9 hPa | 0 mm | 0 m/s | - | - |
| 1777979697 | 8.89° C | 95% | 1013.8 hPa | 0 mm | 0 m/s | - | - |
| 1777979395 | 8.89° C | 95% | 1013.9 hPa | 0 mm | 0 m/s | - | - |
| 1777979095 | 8.89° C | 94% | 1013.8 hPa | 0 mm | 0 m/s | - | - |
| 1777978795 | 9.44° C | 95% | 1013.8 hPa | 0 mm | 0 m/s | - | - |
| 1777978497 | 9.44° C | 94% | 1013.7 hPa | 0 mm | 0 m/s | - | - |
| 1777978197 | 8.89° C | 94% | 1013.6 hPa | 0 mm | 0 m/s | - | - |
| 1777977895 | 8.89° C | 94% | 1013.5 hPa | 0 mm | 0 m/s | - | - |
| 1777977598 | 8.89° C | 94% | 1013.4 hPa | 0 mm | 0 m/s | - | - |
| 1777977297 | 8.89° C | 93% | 1013.2 hPa | 0 mm | 0 m/s | - | - |
| 1777976997 | 8.89° C | 93% | 1013.2 hPa | 0 mm | 0 m/s | - | - |
| 1777976697 | 9.44° C | 93% | 1013.3 hPa | 0 mm | 0 m/s | - | - |
| 1777976395 | 9.44° C | 93% | 1013.3 hPa | 0 mm | 0 m/s | - | - |
* Rain latest hour (hover to see other rain measurements)
** Current wind speed in m/s (hover to see current wind gust speed)